sensor_id;sensor_type;location;lat;lon;timestamp;temperature;humidity
74511;DHT22;62991;50.040;18.400;2023-03-13T00:00:27;5.30;58.80
74511;DHT22;62991;50.040;18.400;2023-03-13T00:03:27;5.30;58.90
74511;DHT22;62991;50.040;18.400;2023-03-13T00:06:31;5.30;59.00
74511;DHT22;62991;50.040;18.400;2023-03-13T00:09:32;5.30;58.90
74511;DHT22;62991;50.040;18.400;2023-03-13T00:12:32;5.30;59.10
74511;DHT22;62991;50.040;18.400;2023-03-13T00:15:33;5.30;59.20
74511;DHT22;62991;50.040;18.400;2023-03-13T00:18:35;5.20;59.70
74511;DHT22;62991;50.040;18.400;2023-03-13T00:21:36;5.30;59.70
74511;DHT22;62991;50.040;18.400;2023-03-13T00:24:37;5.40;59.50
74511;DHT22;62991;50.040;18.400;2023-03-13T00:27:38;5.40;59.80
74511;DHT22;62991;50.040;18.400;2023-03-13T00:30:38;5.30;60.20
74511;DHT22;62991;50.040;18.400;2023-03-13T00:33:41;5.40;60.30
74511;DHT22;62991;50.040;18.400;2023-03-13T00:36:42;5.50;60.50
74511;DHT22;62991;50.040;18.400;2023-03-13T00:39:43;5.50;61.00
74511;DHT22;62991;50.040;18.400;2023-03-13T00:42:44;5.40;61.10
74511;DHT22;62991;50.040;18.400;2023-03-13T00:45:45;5.50;61.10
74511;DHT22;62991;50.040;18.400;2023-03-13T00:48:46;5.60;61.20
74511;DHT22;62991;50.040;18.400;2023-03-13T00:51:46;5.60;61.20
74511;DHT22;62991;50.040;18.400;2023-03-13T00:54:47;5.60;61.20
74511;DHT22;62991;50.040;18.400;2023-03-13T00:57:48;5.50;61.60
74511;DHT22;62991;50.040;18.400;2023-03-13T01:00:49;5.50;61.90
74511;DHT22;62991;50.040;18.400;2023-03-13T01:03:52;5.50;62.20
74511;DHT22;62991;50.040;18.400;2023-03-13T01:06:53;5.50;62.30
74511;DHT22;62991;50.040;18.400;2023-03-13T01:09:54;5.40;62.80
74511;DHT22;62991;50.040;18.400;2023-03-13T01:12:54;5.40;63.50
74511;DHT22;62991;50.040;18.400;2023-03-13T01:15:55;5.40;63.60
74511;DHT22;62991;50.040;18.400;2023-03-13T01:18:59;5.50;63.70
74511;DHT22;62991;50.040;18.400;2023-03-13T01:22:00;5.50;63.90
74511;DHT22;62991;50.040;18.400;2023-03-13T01:25:00;5.40;64.20
74511;DHT22;62991;50.040;18.400;2023-03-13T01:28:01;5.50;64.50
74511;DHT22;62991;50.040;18.400;2023-03-13T01:31:32;5.50;64.60
74511;DHT22;62991;50.040;18.400;2023-03-13T01:34:33;5.60;64.70
74511;DHT22;62991;50.040;18.400;2023-03-13T01:37:34;5.60;64.80
74511;DHT22;62991;50.040;18.400;2023-03-13T01:40:42;5.70;64.80
74511;DHT22;62991;50.040;18.400;2023-03-13T01:43:44;5.60;65.10
74511;DHT22;62991;50.040;18.400;2023-03-13T01:46:45;5.60;65.30
74511;DHT22;62991;50.040;18.400;2023-03-13T01:49:46;5.70;65.20
74511;DHT22;62991;50.040;18.400;2023-03-13T01:52:48;5.70;65.30
74511;DHT22;62991;50.040;18.400;2023-03-13T01:55:49;5.70;65.40
74511;DHT22;62991;50.040;18.400;2023-03-13T01:58:51;5.70;65.40
74511;DHT22;62991;50.040;18.400;2023-03-13T02:01:56;5.70;65.40
74511;DHT22;62991;50.040;18.400;2023-03-13T02:05:00;5.70;65.20
74511;DHT22;62991;50.040;18.400;2023-03-13T02:08:16;5.70;65.40
74511;DHT22;62991;50.040;18.400;2023-03-13T02:14:28;5.80;65.70
74511;DHT22;62991;50.040;18.400;2023-03-13T02:17:30;5.80;65.80
74511;DHT22;62991;50.040;18.400;2023-03-13T02:20:32;5.80;65.90
74511;DHT22;62991;50.040;18.400;2023-03-13T02:24:04;5.80;66.20
74511;DHT22;62991;50.040;18.400;2023-03-13T02:27:07;5.80;66.50
74511;DHT22;62991;50.040;18.400;2023-03-13T02:30:10;5.80;66.80
74511;DHT22;62991;50.040;18.400;2023-03-13T02:33:12;5.80;67.00
74511;DHT22;62991;50.040;18.400;2023-03-13T02:36:15;5.90;67.10
74511;DHT22;62991;50.040;18.400;2023-03-13T02:39:17;5.80;67.40
74511;DHT22;62991;50.040;18.400;2023-03-13T02:42:20;5.90;67.70
74511;DHT22;62991;50.040;18.400;2023-03-13T02:45:21;5.90;67.70
74511;DHT22;62991;50.040;18.400;2023-03-13T02:48:30;6.00;67.70
74511;DHT22;62991;50.040;18.400;2023-03-13T02:51:32;5.90;67.90
74511;DHT22;62991;50.040;18.400;2023-03-13T02:54:36;6.00;68.00
74511;DHT22;62991;50.040;18.400;2023-03-13T02:57:38;6.00;68.00
74511;DHT22;62991;50.040;18.400;2023-03-13T03:00:39;6.00;68.30
74511;DHT22;62991;50.040;18.400;2023-03-13T03:03:40;5.90;68.40
74511;DHT22;62991;50.040;18.400;2023-03-13T03:06:40;6.00;68.40
74511;DHT22;62991;50.040;18.400;2023-03-13T03:09:41;6.00;68.60
74511;DHT22;62991;50.040;18.400;2023-03-13T03:12:42;6.10;68.00
74511;DHT22;62991;50.040;18.400;2023-03-13T03:15:42;6.10;68.30
74511;DHT22;62991;50.040;18.400;2023-03-13T03:18:43;6.10;68.30
74511;DHT22;62991;50.040;18.400;2023-03-13T03:21:44;6.10;68.30
74511;DHT22;62991;50.040;18.400;2023-03-13T03:24:45;6.10;68.30
74511;DHT22;62991;50.040;18.400;2023-03-13T03:27:45;6.20;68.30
74511;DHT22;62991;50.040;18.400;2023-03-13T03:30:46;6.30;67.90
74511;DHT22;62991;50.040;18.400;2023-03-13T03:33:46;6.20;68.10
74511;DHT22;62991;50.040;18.400;2023-03-13T03:36:47;6.40;67.80
74511;DHT22;62991;50.040;18.400;2023-03-13T03:39:48;6.30;67.80
74511;DHT22;62991;50.040;18.400;2023-03-13T03:42:48;6.20;68.10
74511;DHT22;62991;50.040;18.400;2023-03-13T03:45:49;6.20;68.00
74511;DHT22;62991;50.040;18.400;2023-03-13T03:48:50;6.20;67.90
74511;DHT22;62991;50.040;18.400;2023-03-13T03:51:50;6.20;67.90
74511;DHT22;62991;50.040;18.400;2023-03-13T03:54:51;6.00;68.10
74511;DHT22;62991;50.040;18.400;2023-03-13T03:57:52;6.00;68.30
74511;DHT22;62991;50.040;18.400;2023-03-13T04:00:55;6.10;68.10
74511;DHT22;62991;50.040;18.400;2023-03-13T04:03:56;6.10;68.20
74511;DHT22;62991;50.040;18.400;2023-03-13T04:06:57;6.10;67.90
74511;DHT22;62991;50.040;18.400;2023-03-13T04:09:58;6.10;67.90
74511;DHT22;62991;50.040;18.400;2023-03-13T04:12:58;6.00;68.10
74511;DHT22;62991;50.040;18.400;2023-03-13T04:15:59;6.10;68.00
74511;DHT22;62991;50.040;18.400;2023-03-13T04:18:59;6.20;67.90
74511;DHT22;62991;50.040;18.400;2023-03-13T04:22:00;6.20;67.60
74511;DHT22;62991;50.040;18.400;2023-03-13T04:25:01;6.10;67.90
74511;DHT22;62991;50.040;18.400;2023-03-13T04:28:01;6.10;67.90
74511;DHT22;62991;50.040;18.400;2023-03-13T04:31:02;6.10;68.10
74511;DHT22;62991;50.040;18.400;2023-03-13T04:34:03;6.00;68.00
74511;DHT22;62991;50.040;18.400;2023-03-13T04:37:04;6.00;67.90
74511;DHT22;62991;50.040;18.400;2023-03-13T04:40:05;6.10;67.90
74511;DHT22;62991;50.040;18.400;2023-03-13T04:43:07;6.10;67.80
74511;DHT22;62991;50.040;18.400;2023-03-13T04:46:07;6.10;67.90
74511;DHT22;62991;50.040;18.400;2023-03-13T04:49:08;6.10;67.90
74511;DHT22;62991;50.040;18.400;2023-03-13T04:52:09;6.10;67.70
74511;DHT22;62991;50.040;18.400;2023-03-13T04:55:10;6.20;67.50
74511;DHT22;62991;50.040;18.400;2023-03-13T04:58:10;6.30;67.20
74511;DHT22;62991;50.040;18.400;2023-03-13T05:01:11;6.20;67.20
74511;DHT22;62991;50.040;18.400;2023-03-13T05:04:11;6.30;67.10
74511;DHT22;62991;50.040;18.400;2023-03-13T05:07:12;6.40;66.60
74511;DHT22;62991;50.040;18.400;2023-03-13T05:10:13;6.30;66.70
74511;DHT22;62991;50.040;18.400;2023-03-13T05:13:13;6.40;66.70
74511;DHT22;62991;50.040;18.400;2023-03-13T05:16:14;6.50;66.60
74511;DHT22;62991;50.040;18.400;2023-03-13T05:19:15;6.50;66.10
74511;DHT22;62991;50.040;18.400;2023-03-13T05:22:15;6.30;66.80
74511;DHT22;62991;50.040;18.400;2023-03-13T05:25:16;6.40;66.70
74511;DHT22;62991;50.040;18.400;2023-03-13T05:28:17;6.50;66.60
74511;DHT22;62991;50.040;18.400;2023-03-13T05:31:18;6.50;66.40
74511;DHT22;62991;50.040;18.400;2023-03-13T05:34:18;6.40;66.50
74511;DHT22;62991;50.040;18.400;2023-03-13T05:37:19;6.40;66.60
74511;DHT22;62991;50.040;18.400;2023-03-13T05:40:20;6.40;66.50
74511;DHT22;62991;50.040;18.400;2023-03-13T05:43:20;6.40;66.60
74511;DHT22;62991;50.040;18.400;2023-03-13T05:46:21;6.60;66.30
74511;DHT22;62991;50.040;18.400;2023-03-13T05:49:22;6.50;66.40
74511;DHT22;62991;50.040;18.400;2023-03-13T05:52:22;6.60;66.40
74511;DHT22;62991;50.040;18.400;2023-03-13T05:55:23;6.60;66.30
74511;DHT22;62991;50.040;18.400;2023-03-13T05:58:24;6.60;66.40
74511;DHT22;62991;50.040;18.400;2023-03-13T06:01:24;6.60;66.80
74511;DHT22;62991;50.040;18.400;2023-03-13T06:04:25;6.80;66.30
74511;DHT22;62991;50.040;18.400;2023-03-13T06:07:26;6.80;66.20
74511;DHT22;62991;50.040;18.400;2023-03-13T06:10:26;6.80;66.60
74511;DHT22;62991;50.040;18.400;2023-03-13T06:13:27;6.90;66.50
74511;DHT22;62991;50.040;18.400;2023-03-13T06:16:28;7.00;67.10
74511;DHT22;62991;50.040;18.400;2023-03-13T06:19:29;7.00;66.30
74511;DHT22;62991;50.040;18.400;2023-03-13T06:22:30;6.90;66.40
74511;DHT22;62991;50.040;18.400;2023-03-13T06:25:33;6.80;67.10
74511;DHT22;62991;50.040;18.400;2023-03-13T06:28:33;6.90;66.90
74511;DHT22;62991;50.040;18.400;2023-03-13T06:31:34;7.00;66.70
74511;DHT22;62991;50.040;18.400;2023-03-13T06:34:35;7.00;66.90
74511;DHT22;62991;50.040;18.400;2023-03-13T06:37:35;7.00;67.00
74511;DHT22;62991;50.040;18.400;2023-03-13T06:40:36;7.10;66.80
74511;DHT22;62991;50.040;18.400;2023-03-13T06:43:37;7.20;66.70
74511;DHT22;62991;50.040;18.400;2023-03-13T06:46:40;7.20;66.70
74511;DHT22;62991;50.040;18.400;2023-03-13T06:49:40;7.20;66.80
74511;DHT22;62991;50.040;18.400;2023-03-13T06:52:41;7.20;67.00
74511;DHT22;62991;50.040;18.400;2023-03-13T06:55:42;7.20;67.00
74511;DHT22;62991;50.040;18.400;2023-03-13T06:58:47;7.20;67.30
74511;DHT22;62991;50.040;18.400;2023-03-13T07:01:48;7.20;67.00
74511;DHT22;62991;50.040;18.400;2023-03-13T07:04:49;7.30;66.40
74511;DHT22;62991;50.040;18.400;2023-03-13T07:07:49;7.30;66.60
74511;DHT22;62991;50.040;18.400;2023-03-13T07:10:50;7.40;66.70
74511;DHT22;62991;50.040;18.400;2023-03-13T07:13:55;7.50;66.10
74511;DHT22;62991;50.040;18.400;2023-03-13T07:16:58;7.60;66.00
74511;DHT22;62991;50.040;18.400;2023-03-13T07:19:58;7.80;65.80
74511;DHT22;62991;50.040;18.400;2023-03-13T07:22:59;7.70;65.40
74511;DHT22;62991;50.040;18.400;2023-03-13T07:26:05;7.90;65.50
74511;DHT22;62991;50.040;18.400;2023-03-13T07:29:06;8.00;65.20
74511;DHT22;62991;50.040;18.400;2023-03-13T07:32:07;8.20;64.70
74511;DHT22;62991;50.040;18.400;2023-03-13T07:35:08;8.20;64.10
74511;DHT22;62991;50.040;18.400;2023-03-13T07:38:08;8.40;64.20
74511;DHT22;62991;50.040;18.400;2023-03-13T07:41:11;8.50;63.70
74511;DHT22;62991;50.040;18.400;2023-03-13T07:44:12;8.50;63.20
74511;DHT22;62991;50.040;18.400;2023-03-13T07:47:13;8.50;63.40
74511;DHT22;62991;50.040;18.400;2023-03-13T07:50:14;8.50;63.20
74511;DHT22;62991;50.040;18.400;2023-03-13T07:53:15;8.80;63.00
74511;DHT22;62991;50.040;18.400;2023-03-13T07:56:22;8.70;63.00
74511;DHT22;62991;50.040;18.400;2023-03-13T07:59:23;8.90;62.30
74511;DHT22;62991;50.040;18.400;2023-03-13T08:02:23;9.00;62.40
74511;DHT22;62991;50.040;18.400;2023-03-13T08:05:24;9.20;62.40
74511;DHT22;62991;50.040;18.400;2023-03-13T08:08:25;9.20;61.70
74511;DHT22;62991;50.040;18.400;2023-03-13T08:11:27;9.30;62.10
74511;DHT22;62991;50.040;18.400;2023-03-13T08:14:27;9.40;61.80
74511;DHT22;62991;50.040;18.400;2023-03-13T08:17:29;9.50;61.20
74511;DHT22;62991;50.040;18.400;2023-03-13T08:20:30;9.60;61.10
74511;DHT22;62991;50.040;18.400;2023-03-13T08:23:31;9.60;60.30
74511;DHT22;62991;50.040;18.400;2023-03-13T08:26:34;9.70;60.20
74511;DHT22;62991;50.040;18.400;2023-03-13T08:29:35;9.70;60.50
74511;DHT22;62991;50.040;18.400;2023-03-13T08:32:36;9.70;60.40
74511;DHT22;62991;50.040;18.400;2023-03-13T08:35:36;9.90;59.80
74511;DHT22;62991;50.040;18.400;2023-03-13T08:38:38;10.00;60.60
74511;DHT22;62991;50.040;18.400;2023-03-13T08:41:39;10.40;59.30
74511;DHT22;62991;50.040;18.400;2023-03-13T08:44:40;10.20;59.20
74511;DHT22;62991;50.040;18.400;2023-03-13T08:47:41;10.20;59.70
74511;DHT22;62991;50.040;18.400;2023-03-13T08:50:42;10.10;58.60
74511;DHT22;62991;50.040;18.400;2023-03-13T08:53:43;10.00;59.60
74511;DHT22;62991;50.040;18.400;2023-03-13T08:56:43;10.00;59.40
74511;DHT22;62991;50.040;18.400;2023-03-13T08:59:44;9.80;59.80
74511;DHT22;62991;50.040;18.400;2023-03-13T09:02:45;9.90;60.20
74511;DHT22;62991;50.040;18.400;2023-03-13T09:05:45;9.90;59.90
74511;DHT22;62991;50.040;18.400;2023-03-13T09:08:47;10.00;60.10
74511;DHT22;62991;50.040;18.400;2023-03-13T09:11:47;10.00;59.90
74511;DHT22;62991;50.040;18.400;2023-03-13T09:14:48;10.20;59.40
74511;DHT22;62991;50.040;18.400;2023-03-13T09:17:49;10.30;59.00
74511;DHT22;62991;50.040;18.400;2023-03-13T09:20:49;10.20;59.30
74511;DHT22;62991;50.040;18.400;2023-03-13T09:23:51;10.30;59.00
74511;DHT22;62991;50.040;18.400;2023-03-13T09:26:51;10.20;59.10
74511;DHT22;62991;50.040;18.400;2023-03-13T09:29:53;10.30;58.90
74511;DHT22;62991;50.040;18.400;2023-03-13T09:32:53;10.30;59.20
74511;DHT22;62991;50.040;18.400;2023-03-13T09:35:54;10.40;58.70
74511;DHT22;62991;50.040;18.400;2023-03-13T09:38:57;10.20;58.50
74511;DHT22;62991;50.040;18.400;2023-03-13T09:42:18;10.20;58.50
74511;DHT22;62991;50.040;18.400;2023-03-13T09:48:37;10.40;58.20
74511;DHT22;62991;50.040;18.400;2023-03-13T09:51:43;10.50;59.00
74511;DHT22;62991;50.040;18.400;2023-03-13T09:54:58;10.60;58.10
74511;DHT22;62991;50.040;18.400;2023-03-13T10:01:03;10.80;56.90
74511;DHT22;62991;50.040;18.400;2023-03-13T10:04:11;10.80;56.50
74511;DHT22;62991;50.040;18.400;2023-03-13T10:07:20;10.80;56.50
74511;DHT22;62991;50.040;18.400;2023-03-13T10:10:33;11.00;55.70
74511;DHT22;62991;50.040;18.400;2023-03-13T10:17:04;11.50;55.80
74511;DHT22;62991;50.040;18.400;2023-03-13T10:23:37;11.30;55.00
74511;DHT22;62991;50.040;18.400;2023-03-13T10:26:38;11.40;54.70
74511;DHT22;62991;50.040;18.400;2023-03-13T10:29:39;11.40;54.60
74511;DHT22;62991;50.040;18.400;2023-03-13T10:32:40;11.50;54.50
74511;DHT22;62991;50.040;18.400;2023-03-13T10:35:42;11.30;53.40
74511;DHT22;62991;50.040;18.400;2023-03-13T10:38:51;11.30;53.40
74511;DHT22;62991;50.040;18.400;2023-03-13T10:41:58;11.50;54.30
74511;DHT22;62991;50.040;18.400;2023-03-13T10:45:20;11.40;53.10
74511;DHT22;62991;50.040;18.400;2023-03-13T10:48:25;11.40;53.70
74511;DHT22;62991;50.040;18.400;2023-03-13T10:51:37;11.50;53.50
74511;DHT22;62991;50.040;18.400;2023-03-13T10:54:38;11.20;53.60
74511;DHT22;62991;50.040;18.400;2023-03-13T10:57:42;11.20;54.70
74511;DHT22;62991;50.040;18.400;2023-03-13T11:00:50;11.30;55.10
74511;DHT22;62991;50.040;18.400;2023-03-13T11:03:53;11.20;54.40
74511;DHT22;62991;50.040;18.400;2023-03-13T11:07:34;11.20;53.30
74511;DHT22;62991;50.040;18.400;2023-03-13T11:10:27;11.40;53.90
74511;DHT22;62991;50.040;18.400;2023-03-13T11:13:35;11.50;53.20
74511;DHT22;62991;50.040;18.400;2023-03-13T11:16:45;11.60;53.00
74511;DHT22;62991;50.040;18.400;2023-03-13T11:29:43;11.50;51.70
74511;DHT22;62991;50.040;18.400;2023-03-13T11:33:03;11.60;52.10
74511;DHT22;62991;50.040;18.400;2023-03-13T11:36:17;11.60;51.80
74511;DHT22;62991;50.040;18.400;2023-03-13T12:02:01;11.80;49.70
74511;DHT22;62991;50.040;18.400;2023-03-13T12:05:10;11.70;50.00
74511;DHT22;62991;50.040;18.400;2023-03-13T12:08:20;11.70;50.00
74511;DHT22;62991;50.040;18.400;2023-03-13T12:11:38;11.80;50.10
74511;DHT22;62991;50.040;18.400;2023-03-13T12:24:35;11.00;52.60
74511;DHT22;62991;50.040;18.400;2023-03-13T12:27:41;10.80;52.80
74511;DHT22;62991;50.040;18.400;2023-03-13T12:30:46;10.60;53.30
74511;DHT22;62991;50.040;18.400;2023-03-13T12:34:10;10.50;53.60
74511;DHT22;62991;50.040;18.400;2023-03-13T12:37:22;10.60;53.80
74511;DHT22;62991;50.040;18.400;2023-03-13T12:40:38;10.40;54.30
74511;DHT22;62991;50.040;18.400;2023-03-13T12:43:41;10.30;54.20
74511;DHT22;62991;50.040;18.400;2023-03-13T12:46:46;10.00;57.00
74511;DHT22;62991;50.040;18.400;2023-03-13T12:50:02;9.90;57.60
74511;DHT22;62991;50.040;18.400;2023-03-13T12:53:22;9.90;58.40
74511;DHT22;62991;50.040;18.400;2023-03-13T12:56:38;9.80;58.90
74511;DHT22;62991;50.040;18.400;2023-03-13T12:59:52;9.80;58.70
74511;DHT22;62991;50.040;18.400;2023-03-13T13:06:12;10.00;60.20
74511;DHT22;62991;50.040;18.400;2023-03-13T13:09:23;9.90;58.70
74511;DHT22;62991;50.040;18.400;2023-03-13T13:12:25;9.90;58.60
74511;DHT22;62991;50.040;18.400;2023-03-13T13:15:27;9.90;58.10
74511;DHT22;62991;50.040;18.400;2023-03-13T13:18:32;10.00;57.60
74511;DHT22;62991;50.040;18.400;2023-03-13T13:21:33;10.20;56.00
74511;DHT22;62991;50.040;18.400;2023-03-13T13:24:46;10.20;56.70
74511;DHT22;62991;50.040;18.400;2023-03-13T13:27:48;10.30;56.20
74511;DHT22;62991;50.040;18.400;2023-03-13T13:30:50;10.40;55.90
74511;DHT22;62991;50.040;18.400;2023-03-13T13:33:51;10.50;55.40
74511;DHT22;62991;50.040;18.400;2023-03-13T13:37:02;10.60;54.80
74511;DHT22;62991;50.040;18.400;2023-03-13T13:43:24;10.70;53.90
74511;DHT22;62991;50.040;18.400;2023-03-13T13:46:32;10.70;53.00
74511;DHT22;62991;50.040;18.400;2023-03-13T13:49:51;10.80;53.40
74511;DHT22;62991;50.040;18.400;2023-03-13T13:53:31;10.80;53.70
74511;DHT22;62991;50.040;18.400;2023-03-13T14:00:22;10.80;52.90
74511;DHT22;62991;50.040;18.400;2023-03-13T14:06:28;10.90;52.00
74511;DHT22;62991;50.040;18.400;2023-03-13T14:12:54;11.00;52.60
74511;DHT22;62991;50.040;18.400;2023-03-13T14:15:55;11.10;52.50
74511;DHT22;62991;50.040;18.400;2023-03-13T14:18:56;11.10;52.40
74511;DHT22;62991;50.040;18.400;2023-03-13T14:22:05;11.20;52.90
74511;DHT22;62991;50.040;18.400;2023-03-13T14:25:06;11.20;52.80
74511;DHT22;62991;50.040;18.400;2023-03-13T14:31:30;11.10;53.30
74511;DHT22;62991;50.040;18.400;2023-03-13T14:34:31;11.20;53.50
74511;DHT22;62991;50.040;18.400;2023-03-13T14:40:37;11.20;54.00
74511;DHT22;62991;50.040;18.400;2023-03-13T14:43:41;11.10;54.40
74511;DHT22;62991;50.040;18.400;2023-03-13T14:46:42;11.10;54.60
74511;DHT22;62991;50.040;18.400;2023-03-13T14:49:44;11.00;54.90
74511;DHT22;62991;50.040;18.400;2023-03-13T14:52:54;11.00;55.50
74511;DHT22;62991;50.040;18.400;2023-03-13T14:56:16;11.10;55.60
74511;DHT22;62991;50.040;18.400;2023-03-13T14:59:23;11.00;55.60
74511;DHT22;62991;50.040;18.400;2023-03-13T15:02:28;11.00;55.50
74511;DHT22;62991;50.040;18.400;2023-03-13T15:05:30;11.10;55.50
74511;DHT22;62991;50.040;18.400;2023-03-13T15:08:33;11.10;55.40
74511;DHT22;62991;50.040;18.400;2023-03-13T15:11:37;11.10;55.40
74511;DHT22;62991;50.040;18.400;2023-03-13T15:14:41;11.20;54.80
74511;DHT22;62991;50.040;18.400;2023-03-13T15:17:42;11.20;55.00
74511;DHT22;62991;50.040;18.400;2023-03-13T15:20:43;11.20;54.90
74511;DHT22;62991;50.040;18.400;2023-03-13T15:26:54;11.30;54.80
74511;DHT22;62991;50.040;18.400;2023-03-13T15:29:55;11.20;54.80
74511;DHT22;62991;50.040;18.400;2023-03-13T15:32:56;11.30;54.90
74511;DHT22;62991;50.040;18.400;2023-03-13T15:35:56;11.30;54.70
74511;DHT22;62991;50.040;18.400;2023-03-13T15:38:57;11.30;54.80
74511;DHT22;62991;50.040;18.400;2023-03-13T15:41:58;11.30;54.70
74511;DHT22;62991;50.040;18.400;2023-03-13T15:44:58;11.20;54.80
74511;DHT22;62991;50.040;18.400;2023-03-13T15:47:59;11.10;55.20
74511;DHT22;62991;50.040;18.400;2023-03-13T15:51:01;11.20;55.10
74511;DHT22;62991;50.040;18.400;2023-03-13T15:54:03;11.20;55.00
74511;DHT22;62991;50.040;18.400;2023-03-13T15:57:04;11.30;55.00
74511;DHT22;62991;50.040;18.400;2023-03-13T16:00:11;11.40;55.10
74511;DHT22;62991;50.040;18.400;2023-03-13T16:03:15;11.40;55.00
74511;DHT22;62991;50.040;18.400;2023-03-13T16:06:18;11.50;54.90
74511;DHT22;62991;50.040;18.400;2023-03-13T16:09:20;11.40;54.80
74511;DHT22;62991;50.040;18.400;2023-03-13T16:12:21;11.40;55.30
74511;DHT22;62991;50.040;18.400;2023-03-13T16:15:22;11.50;54.90
74511;DHT22;62991;50.040;18.400;2023-03-13T16:18:23;11.50;55.10
74511;DHT22;62991;50.040;18.400;2023-03-13T16:21:28;11.40;55.20
74511;DHT22;62991;50.040;18.400;2023-03-13T16:24:29;11.40;55.10
74511;DHT22;62991;50.040;18.400;2023-03-13T16:27:29;11.40;55.70
74511;DHT22;62991;50.040;18.400;2023-03-13T16:30:31;11.40;56.30
74511;DHT22;62991;50.040;18.400;2023-03-13T16:33:33;11.20;56.50
74511;DHT22;62991;50.040;18.400;2023-03-13T16:36:35;11.20;56.00
74511;DHT22;62991;50.040;18.400;2023-03-13T16:39:36;11.20;56.30
74511;DHT22;62991;50.040;18.400;2023-03-13T16:42:36;11.20;56.30
74511;DHT22;62991;50.040;18.400;2023-03-13T16:45:37;11.20;55.90
74511;DHT22;62991;50.040;18.400;2023-03-13T16:48:38;11.20;55.60
74511;DHT22;62991;50.040;18.400;2023-03-13T16:51:39;11.20;56.50
74511;DHT22;62991;50.040;18.400;2023-03-13T16:54:40;11.20;56.60
74511;DHT22;62991;50.040;18.400;2023-03-13T16:57:41;11.10;57.70
74511;DHT22;62991;50.040;18.400;2023-03-13T17:00:41;11.10;56.30
74511;DHT22;62991;50.040;18.400;2023-03-13T17:03:43;11.20;56.80
74511;DHT22;62991;50.040;18.400;2023-03-13T17:06:44;11.20;55.70
74511;DHT22;62991;50.040;18.400;2023-03-13T17:09:45;11.20;55.60
74511;DHT22;62991;50.040;18.400;2023-03-13T17:12:46;11.20;55.40
74511;DHT22;62991;50.040;18.400;2023-03-13T17:15:47;11.30;55.40
74511;DHT22;62991;50.040;18.400;2023-03-13T17:18:50;11.30;55.20
74511;DHT22;62991;50.040;18.400;2023-03-13T17:21:51;11.30;55.40
74511;DHT22;62991;50.040;18.400;2023-03-13T17:24:52;11.30;54.60
74511;DHT22;62991;50.040;18.400;2023-03-13T17:27:53;11.40;53.90
74511;DHT22;62991;50.040;18.400;2023-03-13T17:30:53;11.40;53.40
74511;DHT22;62991;50.040;18.400;2023-03-13T17:33:54;11.50;53.00
74511;DHT22;62991;50.040;18.400;2023-03-13T17:36:55;11.60;53.00
74511;DHT22;62991;50.040;18.400;2023-03-13T17:39:55;11.70;52.20
74511;DHT22;62991;50.040;18.400;2023-03-13T17:42:56;11.70;52.10
74511;DHT22;62991;50.040;18.400;2023-03-13T17:45:57;11.70;52.00
74511;DHT22;62991;50.040;18.400;2023-03-13T17:48:58;11.80;52.00
74511;DHT22;62991;50.040;18.400;2023-03-13T17:52:00;11.90;52.10
74511;DHT22;62991;50.040;18.400;2023-03-13T17:55:00;11.90;51.90
74511;DHT22;62991;50.040;18.400;2023-03-13T17:58:01;11.90;51.70
74511;DHT22;62991;50.040;18.400;2023-03-13T18:01:02;12.00;51.50
74511;DHT22;62991;50.040;18.400;2023-03-13T18:04:02;11.90;51.40
74511;DHT22;62991;50.040;18.400;2023-03-13T18:07:15;11.80;51.60
74511;DHT22;62991;50.040;18.400;2023-03-13T18:10:20;11.80;51.90
74511;DHT22;62991;50.040;18.400;2023-03-13T18:13:21;11.90;51.30
74511;DHT22;62991;50.040;18.400;2023-03-13T18:16:25;11.80;51.40
74511;DHT22;62991;50.040;18.400;2023-03-13T18:19:26;11.80;51.50
74511;DHT22;62991;50.040;18.400;2023-03-13T18:22:27;11.80;51.40
74511;DHT22;62991;50.040;18.400;2023-03-13T18:25:28;11.70;51.30
74511;DHT22;62991;50.040;18.400;2023-03-13T18:28:29;11.70;51.50
74511;DHT22;62991;50.040;18.400;2023-03-13T18:31:32;11.70;51.40
74511;DHT22;62991;50.040;18.400;2023-03-13T18:34:34;11.70;51.60
74511;DHT22;62991;50.040;18.400;2023-03-13T18:37:35;11.70;51.60
74511;DHT22;62991;50.040;18.400;2023-03-13T18:40:36;11.70;51.50
74511;DHT22;62991;50.040;18.400;2023-03-13T18:43:37;11.60;51.70
74511;DHT22;62991;50.040;18.400;2023-03-13T18:46:37;11.60;51.80
74511;DHT22;62991;50.040;18.400;2023-03-13T18:49:38;11.50;51.90
74511;DHT22;62991;50.040;18.400;2023-03-13T18:52:39;11.50;51.80
74511;DHT22;62991;50.040;18.400;2023-03-13T18:55:39;11.40;51.90
74511;DHT22;62991;50.040;18.400;2023-03-13T18:58:40;11.40;51.80
74511;DHT22;62991;50.040;18.400;2023-03-13T19:01:41;11.40;51.90
74511;DHT22;62991;50.040;18.400;2023-03-13T19:04:43;11.40;51.80
74511;DHT22;62991;50.040;18.400;2023-03-13T19:07:44;11.40;51.90
74511;DHT22;62991;50.040;18.400;2023-03-13T19:10:45;11.30;52.00
74511;DHT22;62991;50.040;18.400;2023-03-13T19:13:46;11.30;52.10
74511;DHT22;62991;50.040;18.400;2023-03-13T19:16:52;11.30;52.10
74511;DHT22;62991;50.040;18.400;2023-03-13T19:19:55;11.30;52.00
74511;DHT22;62991;50.040;18.400;2023-03-13T19:22:58;11.30;52.10
74511;DHT22;62991;50.040;18.400;2023-03-13T19:26:00;11.30;52.10
74511;DHT22;62991;50.040;18.400;2023-03-13T19:29:00;11.30;52.10
74511;DHT22;62991;50.040;18.400;2023-03-13T19:32:02;11.30;52.20
74511;DHT22;62991;50.040;18.400;2023-03-13T19:35:07;11.30;52.10
74511;DHT22;62991;50.040;18.400;2023-03-13T19:38:10;11.40;51.90
74511;DHT22;62991;50.040;18.400;2023-03-13T19:41:12;11.40;51.80
74511;DHT22;62991;50.040;18.400;2023-03-13T19:44:15;11.40;51.50
74511;DHT22;62991;50.040;18.400;2023-03-13T19:47:15;11.40;51.50
74511;DHT22;62991;50.040;18.400;2023-03-13T19:50:19;11.40;51.50
74511;DHT22;62991;50.040;18.400;2023-03-13T19:53:20;11.30;51.60
74511;DHT22;62991;50.040;18.400;2023-03-13T19:56:24;11.20;51.80
74511;DHT22;62991;50.040;18.400;2023-03-13T19:59:25;11.20;51.90
74511;DHT22;62991;50.040;18.400;2023-03-13T20:02:26;11.20;51.70
74511;DHT22;62991;50.040;18.400;2023-03-13T20:05:26;11.10;51.80
74511;DHT22;62991;50.040;18.400;2023-03-13T20:08:27;11.10;52.00
74511;DHT22;62991;50.040;18.400;2023-03-13T20:11:28;11.10;51.80
74511;DHT22;62991;50.040;18.400;2023-03-13T20:14:29;11.20;51.60
74511;DHT22;62991;50.040;18.400;2023-03-13T20:17:30;11.20;51.40
74511;DHT22;62991;50.040;18.400;2023-03-13T20:20:31;11.10;51.40
74511;DHT22;62991;50.040;18.400;2023-03-13T20:23:32;11.10;51.70
74511;DHT22;62991;50.040;18.400;2023-03-13T20:26:32;11.00;51.30
74511;DHT22;62991;50.040;18.400;2023-03-13T20:29:33;11.00;51.40